Time;durP1;ratioP1;P1;durP2;ratioP2;P2;SDS_P1;SDS_P2;PMS_P1;PMS_P2;Temp;Humidity;BMP_temperature;BMP_pressure;BME280_temperature;BME280_humidity;BME280_pressure;Samples;Min_cycle;Max_cycle;Signal;HPM_P1;HPM_P2
2024/01/07 00:01:55;;;;;;;6.85;6.20;;;;;;;-2.02;100.00;102063.63;10248296;28;20765;-67
2024/01/07 00:06:51;;;;;;;7.35;6.75;;;;;;;-2.08;100.00;102077.84;10221988;28;20060;-66
2024/01/07 00:11:49;;;;;;;6.55;6.05;;;;;;;-2.20;100.00;102082.13;10233430;28;20049;-66
2024/01/07 00:16:45;;;;;;;8.15;6.65;;;;;;;-2.57;100.00;102081.50;10262518;28;20049;-67
2024/01/07 00:21:41;;;;;;;7.43;6.63;;;;;;;-2.39;100.00;102081.81;10262155;28;20053;-67
2024/01/07 00:26:38;;;;;;;8.23;6.40;;;;;;;-2.59;100.00;102080.88;10260061;28;20458;-66
2024/01/07 00:31:35;;;;;;;7.65;6.20;;;;;;;-2.45;100.00;102085.28;10255024;28;20041;-67
2024/01/07 00:36:31;;;;;;;9.27;6.47;;;;;;;-2.53;100.00;102093.47;10260768;28;20083;-64
2024/01/07 00:41:30;;;;;;;7.50;6.80;;;;;;;-2.55;100.00;102095.53;10262376;28;20526;-66
2024/01/07 00:46:26;;;;;;;7.82;7.15;;;;;;;-2.65;100.00;102105.75;10250403;28;20038;-67
2024/01/07 00:51:23;;;;;;;7.07;6.45;;;;;;;-2.59;100.00;102110.34;10233311;28;20051;-67
2024/01/07 00:56:19;;;;;;;7.85;7.20;;;;;;;-2.57;100.00;102116.31;10260021;28;20075;-68
2024/01/07 01:01:16;;;;;;;7.75;6.93;;;;;;;-2.57;100.00;102116.31;10254753;28;20524;-67
2024/01/07 01:06:12;;;;;;;7.38;6.60;;;;;;;-2.73;100.00;102124.66;10249080;28;20064;-68
2024/01/07 01:11:10;;;;;;;7.93;7.25;;;;;;;-2.82;100.00;102132.81;10213193;28;20045;-67
2024/01/07 01:16:06;;;;;;;8.45;7.65;;;;;;;-2.83;100.00;102141.88;10221384;28;20044;-68
2024/01/07 01:21:03;;;;;;;8.07;7.47;;;;;;;-2.88;100.00;102149.63;10259394;28;20041;-68
2024/01/07 01:26:00;;;;;;;7.78;7.07;;;;;;;-3.02;100.00;102159.44;10254536;28;20042;-68
2024/01/07 01:30:57;;;;;;;7.30;6.70;;;;;;;-3.03;100.00;102162.28;10226430;28;20040;-69
2024/01/07 01:35:54;;;;;;;8.45;6.78;;;;;;;-3.04;100.00;102166.81;10268246;28;20396;-67
2024/01/07 01:40:52;;;;;;;8.00;7.22;;;;;;;-3.05;100.00;102170.50;10267223;28;20053;-66
2024/01/07 01:45:48;;;;;;;8.90;7.65;;;;;;;-2.98;100.00;102173.25;10255745;28;20042;-68
2024/01/07 01:50:46;;;;;;;7.72;7.15;;;;;;;-3.12;100.00;102179.50;10233106;28;20053;-69
2024/01/07 01:55:43;;;;;;;7.70;7.07;;;;;;;-3.03;100.00;102189.06;10266379;28;20164;-69
2024/01/07 02:00:40;;;;;;;7.78;7.07;;;;;;;-2.92;100.00;102196.56;10263639;28;20049;-69
2024/01/07 02:05:36;;;;;;;7.97;7.32;;;;;;;-2.88;100.00;102203.19;10265377;28;20044;-68
2024/01/07 02:10:34;;;;;;;7.88;7.38;;;;;;;-2.72;100.00;102204.75;10265440;28;20044;-69
2024/01/07 02:15:31;;;;;;;7.38;6.88;;;;;;;-2.65;100.00;102210.19;10261207;28;20118;-66
2024/01/07 02:20:27;;;;;;;7.80;7.20;;;;;;;-2.57;100.00;102210.06;10216427;28;20048;-67
2024/01/07 02:25:24;;;;;;;7.05;6.55;;;;;;;-2.56;100.00;102217.06;10221820;28;20042;-66
2024/01/07 02:30:21;;;;;;;7.78;7.07;;;;;;;-2.37;100.00;102216.41;10224621;28;20053;-67
2024/01/07 02:35:18;;;;;;;7.57;6.93;;;;;;;-2.28;100.00;102224.28;10264471;28;20041;-68
2024/01/07 02:40:14;;;;;;;7.50;6.90;;;;;;;-2.29;100.00;102228.00;10268491;28;20048;-69
2024/01/07 02:45:11;;;;;;;7.18;6.57;;;;;;;-2.39;100.00;102231.84;10269762;28;20504;-69
2024/01/07 02:50:07;;;;;;;7.00;6.40;;;;;;;-2.28;100.00;102241.16;10264424;28;20045;-68
2024/01/07 02:55:04;;;;;;;6.28;5.75;;;;;;;-2.26;100.00;102238.31;10229085;28;20049;-66
2024/01/07 03:00:01;;;;;;;6.85;6.35;;;;;;;-2.24;100.00;102231.72;10224528;28;20480;-69
2024/01/07 03:04:57;;;;;;;6.70;6.10;;;;;;;-2.14;100.00;102242.09;10263137;28;20060;-69
2024/01/07 03:09:54;;;;;;;7.60;6.70;;;;;;;-2.00;100.00;102251.06;10268831;28;20110;-68
2024/01/07 03:14:50;;;;;;;6.70;6.20;;;;;;;-2.04;100.00;102258.69;10219813;28;20141;-66
2024/01/07 03:19:47;;;;;;;6.68;5.97;;;;;;;-2.15;100.00;102252.00;10217606;28;20064;-67
2024/01/07 03:24:43;;;;;;;6.78;6.07;;;;;;;-2.14;100.00;102258.16;10217585;28;20093;-68
2024/01/07 03:29:40;;;;;;;9.50;6.50;;;;;;;-2.00;100.00;102257.25;10211734;28;20099;-65
2024/01/07 03:34:39;;;;;;;7.00;6.43;;;;;;;-1.96;100.00;102261.19;10260533;28;20504;-67
2024/01/07 03:39:36;;;;;;;7.13;6.63;;;;;;;-1.93;100.00;102271.53;10263996;28;20571;-64
2024/01/07 03:44:33;;;;;;;6.95;6.35;;;;;;;-1.83;100.00;102273.88;10228134;28;20053;-66
2024/01/07 03:49:29;;;;;;;7.40;6.80;;;;;;;-1.78;100.00;102278.63;10258687;28;20091;-67
2024/01/07 03:54:26;;;;;;;7.65;6.00;;;;;;;-1.88;100.00;102286.19;10264257;28;20530;-67
2024/01/07 03:59:24;;;;;;;8.35;6.32;;;;;;;-1.87;100.00;102290.53;10224421;28;20065;-67
2024/01/07 04:04:21;;;;;;;6.53;6.03;;;;;;;-1.83;100.00;102298.00;10260607;28;20454;-66
2024/01/07 04:09:17;;;;;;;6.80;6.10;;;;;;;-1.73;100.00;102303.00;10263516;28;20040;-67
2024/01/07 04:14:15;;;;;;;10.23;6.40;;;;;;;-1.65;100.00;102308.19;10264355;28;20068;-66
2024/01/07 04:19:11;;;;;;;6.57;5.97;;;;;;;-1.66;100.00;102314.59;10263920;28;20639;-66
2024/01/07 04:24:08;;;;;;;10.30;5.60;;;;;;;-1.66;100.00;102319.97;10265003;28;20052;-67
2024/01/07 04:29:04;;;;;;;5.80;5.30;;;;;;;-1.53;100.00;102328.09;10263721;28;20049;-66
2024/01/07 04:34:01;;;;;;;6.45;5.90;;;;;;;-1.55;100.00;102324.78;10259063;28;20648;-68
2024/01/07 04:38:57;;;;;;;5.80;5.30;;;;;;;-1.57;100.00;102324.13;10262706;28;20053;-66
2024/01/07 04:43:54;;;;;;;5.70;5.20;;;;;;;-1.59;100.00;102326.19;10263173;28;20577;-68
2024/01/07 04:48:50;;;;;;;5.53;5.03;;;;;;;-1.60;100.00;102331.75;10265402;28;20049;-67
2024/01/07 04:53:48;;;;;;;6.10;5.50;;;;;;;-1.55;100.00;102332.00;10264180;28;20079;-67
2024/01/07 04:58:44;;;;;;;5.20;4.68;;;;;;;-1.57;100.00;102334.88;10263543;28;20043;-67
2024/01/07 05:03:41;;;;;;;6.85;5.03;;;;;;;-1.53;100.00;102330.78;10235151;28;20042;-67
2024/01/07 05:08:37;;;;;;;6.38;5.70;;;;;;;-1.49;100.00;102337.38;10225135;28;20049;-67
2024/01/07 05:13:35;;;;;;;5.90;5.40;;;;;;;-1.51;100.00;102342.13;10258022;28;20504;-65
2024/01/07 05:18:31;;;;;;;6.63;5.13;;;;;;;-1.52;100.00;102343.16;10248872;28;20038;-67
2024/01/07 05:23:28;;;;;;;6.03;5.40;;;;;;;-1.60;100.00;102362.09;10229395;28;20518;-68
2024/01/07 05:28:24;;;;;;;5.85;5.25;;;;;;;-1.42;100.00;102363.44;10226930;28;20041;-67
2024/01/07 05:33:21;;;;;;;5.55;5.15;;;;;;;-1.44;100.00;102371.66;10222203;28;20049;-67
2024/01/07 05:38:17;;;;;;;6.53;5.53;;;;;;;-1.37;100.00;102374.41;10225268;28;20107;-66
2024/01/07 05:43:14;;;;;;;6.13;5.65;;;;;;;-1.32;100.00;102385.38;10222664;28;21455;-67
2024/01/07 05:48:10;;;;;;;6.30;5.80;;;;;;;-1.31;100.00;102387.84;10229662;28;20045;-67
2024/01/07 05:53:07;;;;;;;6.50;6.10;;;;;;;-1.26;100.00;102400.69;10228729;28;20045;-65
2024/01/07 05:58:03;;;;;;;6.72;6.15;;;;;;;-1.29;100.00;102403.78;10229463;28;20133;-67
2024/01/07 06:03:00;;;;;;;6.40;6.00;;;;;;;-1.23;100.00;102410.19;10225654;28;20049;-67
2024/01/07 06:07:57;;;;;;;6.95;6.35;;;;;;;-1.24;100.00;102414.72;10227807;28;20533;-65
2024/01/07 06:12:53;;;;;;;7.28;6.70;;;;;;;-1.29;100.00;102418.00;10228434;28;20050;-67
2024/01/07 06:17:50;;;;;;;6.95;6.35;;;;;;;-1.28;100.00;102424.19;10226324;28;20037;-67
2024/01/07 06:22:47;;;;;;;7.53;6.82;;;;;;;-1.34;100.00;102438.41;10216306;28;20049;-68
2024/01/07 06:27:43;;;;;;;7.07;6.57;;;;;;;-1.34;100.00;102435.75;10219645;28;20096;-68
2024/01/07 06:32:40;;;;;;;6.57;6.07;;;;;;;-1.38;100.00;102429.91;10229295;28;20574;-66
2024/01/07 06:37:36;;;;;;;7.18;6.57;;;;;;;-1.41;100.00;102434.88;10226429;28;20048;-67
2024/01/07 06:42:33;;;;;;;6.80;6.30;;;;;;;-1.41;100.00;102435.69;10226730;28;20497;-66
2024/01/07 06:47:30;;;;;;;7.15;6.55;;;;;;;-99.05;100.00;102448.00;10221092;28;20042;-66
2024/01/07 06:52:26;;;;;;;6.47;5.88;;;;;;;-1.48;100.00;102457.09;10226190;28;20048;-65
2024/01/07 06:57:22;;;;;;;6.60;6.10;;;;;;;-1.39;100.00;102455.09;10231420;28;20504;-65
2024/01/07 07:02:21;;;;;;;9.13;5.88;;;;;;;-1.40;100.00;102468.72;10226744;28;20049;-67
2024/01/07 07:07:17;;;;;;;8.45;6.60;;;;;;;-1.44;100.00;102479.00;10225890;28;20057;-66
2024/01/07 07:12:14;;;;;;;7.90;7.10;;;;;;;-1.38;100.00;102482.75;10226438;28;21330;-68
2024/01/07 07:17:11;;;;;;;7.95;7.20;;;;;;;-1.31;100.00;102489.00;10225706;28;20819;-66
2024/01/07 07:22:07;;;;;;;10.57;7.45;;;;;;;-1.28;100.00;102505.56;10226249;28;20052;-66
2024/01/07 07:27:04;;;;;;;8.45;7.63;;;;;;;-1.35;100.00;102510.03;10221014;28;20091;-67
2024/01/07 07:32:00;;;;;;;12.70;8.73;;;;;;;-1.35;100.00;102517.25;10225048;28;20700;-67
2024/01/07 07:36:57;;;;;;;9.73;8.82;;;;;;;-1.41;100.00;102520.72;10217503;28;20095;-67
2024/01/07 07:41:53;;;;;;;16.40;8.75;;;;;;;-1.34;100.00;102521.63;10224576;28;20045;-67
2024/01/07 07:46:50;;;;;;;9.25;8.35;;;;;;;-1.34;100.00;102526.97;10211298;28;20095;-67
2024/01/07 07:51:47;;;;;;;11.32;9.25;;;;;;;-1.52;100.00;102530.94;10213466;28;20060;-67
2024/01/07 07:56:43;;;;;;;9.05;8.23;;;;;;;-1.55;100.00;102536.69;10223343;28;20142;-66
2024/01/07 08:01:40;;;;;;;9.85;8.82;;;;;;;-1.64;100.00;102543.22;10226337;28;20132;-66
2024/01/07 08:06:36;;;;;;;9.45;8.55;;;;;;;-1.61;100.00;102548.19;10220920;28;20053;-67
2024/01/07 08:11:33;;;;;;;9.93;9.13;;;;;;;-1.70;100.00;102565.44;10217581;28;20569;-66
2024/01/07 08:16:32;;;;;;;10.05;9.15;;;;;;;-1.80;100.00;102578.31;10218999;28;20544;-68
2024/01/07 08:21:28;;;;;;;11.93;8.90;;;;;;;-1.75;100.00;102573.22;10216419;28;20050;-67
2024/01/07 08:26:25;;;;;;;9.65;8.75;;;;;;;-1.60;100.00;102576.69;10216425;28;20424;-70
2024/01/07 08:31:21;;;;;;;10.98;9.80;;;;;;;-1.53;100.00;102577.59;10218353;28;20125;-69
2024/01/07 08:36:18;;;;;;;10.13;9.15;;;;;;;-1.59;100.00;102594.44;10215822;28;20057;-70
2024/01/07 08:41:18;;;;;;;9.32;8.52;;;;;;;-1.67;100.00;102597.25;10225046;28;20054;-68
2024/01/07 08:46:14;;;;;;;10.82;8.60;;;;;;;-1.74;100.00;102596.31;10218155;28;20052;-69
2024/01/07 08:51:11;;;;;;;9.85;9.05;;;;;;;-1.80;100.00;102613.19;10221920;28;20108;-67
2024/01/07 08:56:08;;;;;;;10.20;8.23;;;;;;;-1.87;100.00;102618.47;10232141;28;20051;-69
2024/01/07 09:01:05;;;;;;;8.93;8.13;;;;;;;-2.01;100.00;102628.19;10229244;28;20073;-69
2024/01/07 09:06:02;;;;;;;8.23;7.63;;;;;;;-1.68;100.00;102625.06;10225571;28;20556;-67
2024/01/07 09:11:00;;;;;;;9.30;8.38;;;;;;;-1.62;100.00;102635.06;10222575;28;20041;-68
2024/01/07 09:15:57;;;;;;;7.72;7.05;;;;;;;-1.86;100.00;102635.38;10225038;28;20435;-69
2024/01/07 09:20:53;;;;;;;9.63;7.03;;;;;;;-2.07;100.00;102628.13;10223683;28;20049;-67
2024/01/07 09:25:50;;;;;;;11.65;7.63;;;;;;;-1.89;100.00;102641.13;10216671;28;20723;-70
2024/01/07 09:30:46;;;;;;;9.57;6.78;;;;;;;-1.89;100.00;102651.84;10226064;28;20057;-68
2024/01/07 09:35:43;;;;;;;8.68;7.15;;;;;;;-1.89;100.00;102646.50;10225498;28;20338;-67
2024/01/07 09:40:40;;;;;;;8.15;6.47;;;;;;;-2.03;100.00;102657.03;10223337;28;20099;-65
2024/01/07 09:45:39;;;;;;;7.57;6.53;;;;;;;-1.61;100.00;102671.59;10214677;28;20054;-67
2024/01/07 09:50:35;;;;;;;9.80;6.38;;;;;;;-1.68;100.00;102665.31;10219114;28;20053;-68
2024/01/07 09:55:51;;;;;;;6.88;6.28;;;;;;;-1.46;100.00;102660.84;10227180;28;20053;-66
2024/01/07 10:00:49;;;;;;;9.52;6.30;;;;;;;-1.30;100.00;102667.78;10220044;28;20053;-68
2024/01/07 10:05:45;;;;;;;8.10;6.55;;;;;;;-1.64;100.00;102666.59;10216589;28;20417;-68
2024/01/07 10:10:42;;;;;;;9.48;7.03;;;;;;;-1.68;100.00;102670.69;10225463;28;20049;-68
2024/01/07 10:15:38;;;;;;;7.75;7.00;;;;;;;-1.45;100.00;102665.16;10226760;28;20180;-70
2024/01/07 10:20:37;;;;;;;10.35;6.55;;;;;;;-1.57;100.00;102662.16;10212518;28;20667;-71
2024/01/07 10:25:37;;;;;;;7.43;6.22;;;;;;;-0.78;100.00;102666.63;10220631;28;20114;-70
2024/01/07 10:30:33;;;;;;;9.05;6.75;;;;;;;-146.18;100.00;67994.34;10220818;28;20053;-71
2024/01/07 10:35:35;;;;;;;7.03;6.43;;;;;;;-0.77;100.00;102670.97;10221569;28;20049;-72
2024/01/07 10:40:34;;;;;;;9.77;6.85;;;;;;;-0.99;100.00;102686.28;10214018;28;20183;-72
2024/01/07 10:45:31;;;;;;;7.65;6.85;;;;;;;-1.11;100.00;102675.22;10221537;28;20057;-70
2024/01/07 10:50:28;;;;;;;8.05;6.90;;;;;;;-1.03;100.00;102684.16;10193834;28;20057;-72
2024/01/07 10:55:29;;;;;;;9.48;7.43;;;;;;;-0.98;100.00;102687.09;10208806;28;20563;-72
2024/01/07 11:00:30;;;;;;;8.38;7.68;;;;;;;-0.93;100.00;102690.88;10217846;28;20052;-72
2024/01/07 11:05:47;;;;;;;7.32;6.70;;;;;;;-1.02;100.00;102691.19;10212904;28;20151;-70
2024/01/07 11:10:49;;;;;;;8.25;6.60;;;;;;;-1.27;100.00;102699.63;10222373;28;20076;-71
2024/01/07 11:15:51;;;;;;;7.88;6.93;;;;;;;-1.38;100.00;102702.81;10215129;28;20501;-72
2024/01/07 11:20:49;;;;;;;7.85;6.85;;;;;;;-1.36;100.00;102700.78;10218301;28;20132;-71
2024/01/07 11:25:45;;;;;;;8.02;7.03;;;;;;;-1.11;100.00;102694.00;10206840;28;20564;-72
2024/01/07 11:30:42;;;;;;;8.20;7.47;;;;;;;-1.02;100.00;102691.19;10205680;28;20050;-68
2024/01/07 11:35:59;;;;;;;8.05;6.97;;;;;;;-0.98;100.00;102698.66;10220176;28;20056;-72
2024/01/07 11:40:57;;;;;;;7.80;7.10;;;;;;;-0.79;100.00;102707.97;10213631;28;20046;-74
2024/01/07 11:45:54;;;;;;;11.50;7.25;;;;;;;-1.22;100.00;102702.56;10225133;28;20077;-73
2024/01/07 11:50:51;;;;;;;7.82;7.10;;;;;;;-1.07;100.00;102703.34;10212445;28;20531;-69
2024/01/07 11:55:51;;;;;;;9.70;7.63;;;;;;;-0.81;100.00;102706.47;10222473;28;20045;-70
2024/01/07 12:00:48;;;;;;;7.40;6.70;;;;;;;-0.88;100.00;102698.38;10209904;28;20068;-73
2024/01/07 12:05:44;;;;;;;8.15;7.45;;;;;;;-0.36;100.00;102707.06;10214682;28;20053;-73
2024/01/07 12:10:41;;;;;;;6.25;5.53;;;;;;;-0.19;100.00;102703.00;10213346;28;20049;-72
2024/01/07 12:15:38;;;;;;;8.32;6.07;;;;;;;0.71;100.00;102698.44;10215967;28;20066;-75
2024/01/07 12:20:35;;;;;;;5.88;5.38;;;;;;;0.79;100.00;102700.13;10214008;28;20771;-70
2024/01/07 12:25:31;;;;;;;7.28;5.85;;;;;;;0.02;100.00;102691.34;10211601;28;20045;-71
2024/01/07 12:30:30;;;;;;;6.43;5.18;;;;;;;0.52;100.00;102678.53;10218491;28;20424;-73
2024/01/07 12:35:28;;;;;;;5.25;4.78;;;;;;;1.34;100.00;102681.94;10202864;28;20129;-72
2024/01/07 12:40:26;;;;;;;5.80;5.25;;;;;;;1.23;100.00;102674.47;10217005;28;20488;-73
2024/01/07 12:45:23;;;;;;;5.85;5.15;;;;;;;1.31;100.00;102670.78;10213100;28;20505;-72
2024/01/07 12:50:21;;;;;;;6.00;5.40;;;;;;;0.40;100.00;102674.78;10215786;28;20058;-73
2024/01/07 12:55:18;;;;;;;9.48;5.55;;;;;;;1.73;100.00;102680.25;10210181;28;20050;-73
2024/01/07 13:00:15;;;;;;;6.22;5.50;;;;;;;0.47;100.00;102686.38;10210014;28;20049;-73
2024/01/07 13:05:12;;;;;;;6.85;5.38;;;;;;;0.54;100.00;67994.34;10211410;28;20081;-74
2024/01/07 13:10:09;;;;;;;7.40;5.63;;;;;;;-1.01;100.00;102709.81;10214727;28;20137;-73
2024/01/07 13:15:06;;;;;;;5.82;5.32;;;;;;;-1.39;100.00;102714.53;10208753;28;20060;-73
2024/01/07 13:20:06;;;;;;;5.55;5.05;;;;;;;-1.63;100.00;102732.63;10214309;28;20049;-72
2024/01/07 13:25:03;;;;;;;10.73;5.90;;;;;;;-0.78;100.00;102725.72;10212951;28;20527;-71
2024/01/07 13:30:00;;;;;;;6.28;5.25;;;;;;;-0.78;100.00;102725.72;10219236;28;20042;-72
2024/01/07 13:34:56;;;;;;;5.80;4.85;;;;;;;-1.21;100.00;102731.06;10211361;28;20524;-72
2024/01/07 13:39:53;;;;;;;5.55;4.45;;;;;;;-1.10;100.00;102733.25;10225967;28;20072;-71
2024/01/07 13:44:49;;;;;;;5.80;4.78;;;;;;;-0.73;100.00;102741.25;10223067;28;20037;-73
2024/01/07 13:49:46;;;;;;;5.72;4.57;;;;;;;-1.19;100.00;102745.13;10220102;28;20081;-73
2024/01/07 13:54:43;;;;;;;6.82;5.18;;;;;;;-1.43;100.00;102748.16;10219410;28;20052;-71
2024/01/07 13:59:40;;;;;;;6.40;5.53;;;;;;;-1.30;100.00;102748.31;10219134;28;20118;-73
2024/01/07 14:04:36;;;;;;;5.45;4.88;;;;;;;-1.54;100.00;102747.59;10222816;28;20041;-70
2024/01/07 14:09:33;;;;;;;5.40;4.90;;;;;;;-1.52;100.00;102753.63;10212474;28;20112;-71
2024/01/07 14:14:29;;;;;;;5.95;5.18;;;;;;;-1.73;100.00;102753.56;10218970;28;20520;-69
2024/01/07 14:19:26;;;;;;;5.15;4.65;;;;;;;-1.98;100.00;102772.59;10219775;28;20049;-71
2024/01/07 14:24:23;;;;;;;6.22;5.15;;;;;;;-2.05;100.00;102770.84;10218831;28;20045;-72
2024/01/07 14:29:19;;;;;;;5.40;4.90;;;;;;;-2.28;100.00;102770.88;10223197;28;20046;-70
2024/01/07 14:34:16;;;;;;;5.38;4.88;;;;;;;-2.12;100.00;102776.91;10217768;28;20073;-71
2024/01/07 14:39:15;;;;;;;6.05;5.40;;;;;;;-2.47;100.00;102778.41;10223789;28;20492;-68
2024/01/07 14:44:12;;;;;;;6.47;5.75;;;;;;;-2.22;100.00;102783.56;10222033;28;20081;-68
2024/01/07 14:49:12;;;;;;;6.35;5.50;;;;;;;-2.33;100.00;102796.38;10230451;28;20045;-69
2024/01/07 14:54:08;;;;;;;5.60;5.10;;;;;;;-2.24;100.00;102799.00;10230580;28;20041;-68
2024/01/07 14:59:05;;;;;;;6.30;5.25;;;;;;;-2.05;100.00;102803.00;10220439;28;20056;-69
2024/01/07 15:04:02;;;;;;;7.47;5.18;;;;;;;-2.29;100.00;102812.94;10218128;28;20053;-69
2024/01/07 15:08:58;;;;;;;5.93;5.40;;;;;;;-2.13;100.00;102806.59;10221583;28;20330;-69
2024/01/07 15:13:55;;;;;;;6.22;5.63;;;;;;;-2.05;100.00;102819.91;10217277;28;20084;-70
2024/01/07 15:18:52;;;;;;;5.93;5.43;;;;;;;-2.25;100.00;102822.28;10218419;28;20045;-68
2024/01/07 15:23:49;;;;;;;6.20;5.60;;;;;;;-2.34;100.00;102832.22;10216283;28;20041;-69
2024/01/07 15:28:45;;;;;;;6.40;5.90;;;;;;;-2.27;100.00;102820.81;10221810;28;20037;-68
2024/01/07 15:33:42;;;;;;;5.93;5.43;;;;;;;-2.62;100.00;102825.75;10217598;28;20424;-69
2024/01/07 15:38:38;;;;;;;6.88;6.18;;;;;;;-2.54;100.00;102831.03;10214468;28;20092;-68
2024/01/07 15:43:35;;;;;;;6.68;6.07;;;;;;;-2.83;100.00;102832.59;10207506;28;20053;-69
2024/01/07 15:48:31;;;;;;;6.68;6.07;;;;;;;-2.70;100.00;102839.19;10219737;28;20088;-68
2024/01/07 15:53:31;;;;;;;6.65;6.05;;;;;;;-2.91;100.00;102835.28;10221777;28;20049;-69
2024/01/07 15:58:30;;;;;;;6.80;6.20;;;;;;;-2.92;100.00;102839.00;10210622;28;20045;-69
2024/01/07 16:03:27;;;;;;;6.93;6.22;;;;;;;-2.93;100.00;102839.16;10215640;28;20723;-69
2024/01/07 16:08:28;;;;;;;7.05;6.50;;;;;;;-3.02;100.00;102846.38;10213106;28;20045;-68
2024/01/07 16:13:25;;;;;;;7.18;6.55;;;;;;;-3.12;100.00;102848.47;10214964;28;20519;-68
2024/01/07 16:18:22;;;;;;;8.88;7.65;;;;;;;-3.22;100.00;102854.84;10210497;28;20099;-70
2024/01/07 16:23:18;;;;;;;8.75;6.80;;;;;;;-3.29;100.00;102861.06;10217890;28;20065;-68
2024/01/07 16:28:15;;;;;;;7.50;6.80;;;;;;;-3.00;100.00;102863.13;10217655;28;20041;-69
2024/01/07 16:33:11;;;;;;;9.75;7.25;;;;;;;-2.77;100.00;102869.34;10217037;28;20488;-68
2024/01/07 16:38:09;;;;;;;7.85;7.05;;;;;;;-2.71;100.00;102881.22;10208457;28;20504;-69
2024/01/07 16:43:05;;;;;;;8.10;7.40;;;;;;;-2.84;100.00;102873.72;10216571;28;20056;-69
2024/01/07 16:48:04;;;;;;;7.78;7.00;;;;;;;-2.76;100.00;102887.09;10219645;28;20453;-67
2024/01/07 16:53:05;;;;;;;9.07;7.20;;;;;;;-2.93;100.00;102890.00;10215144;28;20133;-67
2024/01/07 16:58:03;;;;;;;7.75;7.10;;;;;;;-2.95;100.00;102887.50;10208702;28;20567;-67
2024/01/07 17:02:59;;;;;;;10.15;7.20;;;;;;;-2.77;100.00;102895.28;10247345;28;20172;-69
2024/01/07 17:07:56;;;;;;;8.90;7.55;;;;;;;-2.78;100.00;102896.31;10222734;28;20135;-68
2024/01/07 17:12:52;;;;;;;8.55;7.55;;;;;;;-2.63;100.00;102899.06;10220954;28;20053;-67
2024/01/07 17:17:49;;;;;;;10.25;7.43;;;;;;;-2.86;100.00;102890.97;10224401;28;20497;-69
2024/01/07 17:22:45;;;;;;;9.30;7.95;;;;;;;-2.57;100.00;102901.06;10222078;28;20049;-69
2024/01/07 17:27:42;;;;;;;10.75;7.43;;;;;;;-2.69;100.00;102908.66;10220443;28;20144;-69
2024/01/07 17:32:38;;;;;;;9.52;8.38;;;;;;;-2.86;100.00;102913.22;10218556;28;20057;-68
2024/01/07 17:37:36;;;;;;;9.43;7.75;;;;;;;-2.78;100.00;102921.25;10214211;28;20052;-69
2024/01/07 17:42:33;;;;;;;8.60;7.68;;;;;;;-2.73;100.00;102917.22;10227473;28;20041;-69
2024/01/07 17:47:29;;;;;;;8.88;8.02;;;;;;;-2.91;100.00;102914.78;10222820;28;20099;-67
2024/01/07 17:52:26;;;;;;;8.32;7.53;;;;;;;-2.80;100.00;102917.91;10223432;28;20045;-67
2024/01/07 17:57:23;;;;;;;7.50;6.80;;;;;;;-2.62;100.00;102920.31;10221495;28;20052;-69
2024/01/07 18:02:20;;;;;;;8.38;7.43;;;;;;;-2.71;100.00;102920.56;10214471;28;20049;-67
2024/01/07 18:07:18;;;;;;;7.95;7.25;;;;;;;-2.72;100.00;102916.19;10220770;28;20132;-69
2024/01/07 18:12:16;;;;;;;7.95;7.15;;;;;;;-2.78;100.00;102923.09;10224186;28;20053;-70
2024/01/07 18:17:13;;;;;;;12.75;7.63;;;;;;;-2.94;100.00;102932.03;10224180;28;20096;-69
2024/01/07 18:22:09;;;;;;;9.55;7.63;;;;;;;-2.73;100.00;102922.56;10217873;28;20506;-69
2024/01/07 18:27:06;;;;;;;8.70;7.80;;;;;;;-2.85;100.00;102941.69;10224272;28;20064;-69
2024/01/07 18:32:04;;;;;;;8.18;7.43;;;;;;;-2.85;100.00;102946.22;10227022;28;20050;-68
2024/01/07 18:37:01;;;;;;;8.10;7.32;;;;;;;-2.92;100.00;102956.78;10222574;28;20180;-68
2024/01/07 18:41:57;;;;;;;8.85;7.97;;;;;;;-2.93;100.00;102963.13;10215063;28;20046;-69
2024/01/07 18:46:54;;;;;;;9.23;8.30;;;;;;;-2.93;100.00;102960.44;10225311;28;20048;-68
2024/01/07 18:51:50;;;;;;;8.60;7.70;;;;;;;-3.04;100.00;102958.13;10221525;28;20783;-67
2024/01/07 18:56:47;;;;;;;8.82;7.90;;;;;;;-2.93;100.00;102971.16;10222563;28;20053;-70
2024/01/07 19:01:43;;;;;;;8.65;7.85;;;;;;;-2.82;100.00;102968.09;10219330;28;20049;-69
2024/01/07 19:06:40;;;;;;;8.02;7.22;;;;;;;-2.87;100.00;102975.84;10216773;28;20050;-69
2024/01/07 19:11:42;;;;;;;8.88;8.00;;;;;;;-2.82;100.00;102986.84;10218448;28;20108;-68
2024/01/07 19:16:41;;;;;;;12.18;8.38;;;;;;;-2.91;100.00;102987.88;10226774;28;20053;-68
2024/01/07 19:21:38;;;;;;;9.75;7.93;;;;;;;-3.01;100.00;102992.59;10214256;28;20058;-68
2024/01/07 19:26:36;;;;;;;9.02;8.20;;;;;;;-3.06;100.00;102987.78;10214820;28;20076;-69
2024/01/07 19:31:33;;;;;;;9.70;8.70;;;;;;;-3.21;100.00;102995.66;10213926;28;20128;-69
2024/01/07 19:36:29;;;;;;;9.00;8.10;;;;;;;-3.18;100.00;103000.69;10201096;28;20045;-70
2024/01/07 19:41:28;;;;;;;14.25;8.18;;;;;;;-2.95;100.00;103016.00;10215298;28;20041;-69
2024/01/07 19:46:26;;;;;;;10.40;7.82;;;;;;;-2.97;100.00;103009.97;10220327;28;20053;-69
2024/01/07 19:51:22;;;;;;;10.80;7.80;;;;;;;-3.13;100.00;103015.38;10205904;28;20046;-71
2024/01/07 19:56:19;;;;;;;9.30;8.40;;;;;;;-2.92;100.00;103020.16;10214229;28;20053;-69
2024/01/07 20:01:15;;;;;;;10.23;8.18;;;;;;;-3.09;100.00;103022.06;10219305;28;20049;-71
2024/01/07 20:06:13;;;;;;;8.63;7.72;;;;;;;-2.94;100.00;103033.75;10222256;28;20091;-70
2024/01/07 20:11:17;;;;;;;9.13;7.82;;;;;;;-3.10;100.00;103028.44;10214337;28;20041;-70
2024/01/07 20:16:15;;;;;;;7.55;6.78;;;;;;;-3.09;100.00;103024.72;10213529;28;20579;-70
2024/01/07 20:21:20;;;;;;;9.48;8.57;;;;;;;-2.98;100.00;103033.25;10223312;28;20122;-70
2024/01/07 20:26:17;;;;;;;9.25;8.30;;;;;;;-3.19;100.00;103028.44;10214825;28;20453;-70
2024/01/07 20:31:13;;;;;;;9.50;8.50;;;;;;;-3.14;100.00;103032.44;10217288;28;20563;-69
2024/01/07 20:36:11;;;;;;;13.52;8.90;;;;;;;-3.36;100.00;103040.16;10216768;28;20451;-70
2024/01/07 20:41:09;;;;;;;10.45;9.07;;;;;;;-3.04;100.00;103038.44;10221523;28;20038;-70
2024/01/07 20:46:07;;;;;;;9.50;8.60;;;;;;;-3.30;100.00;103034.13;10220404;28;20073;-69
2024/01/07 20:51:03;;;;;;;9.65;8.75;;;;;;;-3.24;100.00;103052.19;10202239;28;20058;-69
2024/01/07 20:56:00;;;;;;;12.82;9.80;;;;;;;-3.24;100.00;103054.03;10196574;28;20073;-71
2024/01/07 21:00:58;;;;;;;10.10;9.10;;;;;;;-3.25;100.00;103055.88;10212636;28;20080;-68
2024/01/07 21:05:56;;;;;;;14.25;9.23;;;;;;;-2.98;100.00;103059.19;10222231;28;20073;-69
2024/01/07 21:10:53;;;;;;;11.00;9.65;;;;;;;-3.00;100.00;103066.53;10206195;28;20606;-70
2024/01/07 21:15:50;;;;;;;11.05;9.95;;;;;;;-2.97;100.00;103063.50;10216616;28;20073;-68
2024/01/07 21:20:49;;;;;;;12.38;11.10;;;;;;;-3.08;100.00;103067.41;10218249;28;20486;-69
2024/01/07 21:25:45;;;;;;;13.02;11.68;;;;;;;-3.23;100.00;103067.22;10220294;28;20053;-69
2024/01/07 21:30:44;;;;;;;13.15;11.88;;;;;;;-3.12;100.00;103063.38;10209839;28;20052;-70
2024/01/07 21:35:41;;;;;;;14.27;11.88;;;;;;;-3.02;100.00;103071.22;10215515;28;20512;-69
2024/01/07 21:40:37;;;;;;;13.93;11.45;;;;;;;-3.03;100.00;103062.38;10222144;28;20046;-70
2024/01/07 21:45:34;;;;;;;12.95;11.68;;;;;;;-2.99;100.00;103068.22;10226597;28;20046;-68
2024/01/07 21:50:30;;;;;;;15.05;11.63;;;;;;;-2.98;100.00;103064.53;10214408;28;20088;-70
2024/01/07 21:55:27;;;;;;;13.52;11.82;;;;;;;-2.85;100.00;103056.81;10219893;28;20531;-69
2024/01/07 22:00:23;;;;;;;13.27;11.55;;;;;;;-2.75;100.00;103070.84;10226165;28;20065;-69
2024/01/07 22:05:20;;;;;;;13.32;11.63;;;;;;;-2.69;100.00;103068.47;10228555;28;20057;-70
2024/01/07 22:10:16;;;;;;;17.67;11.63;;;;;;;-2.52;100.00;103070.09;10222105;28;20653;-69
2024/01/07 22:15:13;;;;;;;12.52;11.23;;;;;;;-2.80;100.00;103072.38;10216141;28;20038;-69
2024/01/07 22:20:11;;;;;;;12.55;11.02;;;;;;;-2.57;100.00;103067.13;10220131;28;20080;-67
2024/01/07 22:25:08;;;;;;;12.15;10.95;;;;;;;-2.42;100.00;103075.25;10227030;28;20312;-68